sensor_id;sensor_type;location;lat;lon;timestamp;P1;durP1;ratioP1;P2;durP2;ratioP2
48999;SDS011;34808;48.144;17.158;2022-10-16T00:01:12;21.48;;;17.70;;
48999;SDS011;34808;48.144;17.158;2022-10-16T00:03:39;22.23;;;17.98;;
48999;SDS011;34808;48.144;17.158;2022-10-16T00:06:06;21.67;;;18.05;;
48999;SDS011;34808;48.144;17.158;2022-10-16T00:08:31;23.52;;;18.80;;
48999;SDS011;34808;48.144;17.158;2022-10-16T00:11:07;22.38;;;18.85;;
48999;SDS011;34808;48.144;17.158;2022-10-16T00:13:35;25.00;;;18.25;;
48999;SDS011;34808;48.144;17.158;2022-10-16T00:16:01;20.48;;;17.17;;
48999;SDS011;34808;48.144;17.158;2022-10-16T00:18:28;22.60;;;18.55;;
48999;SDS011;34808;48.144;17.158;2022-10-16T00:20:54;22.33;;;18.65;;
48999;SDS011;34808;48.144;17.158;2022-10-16T00:23:20;24.20;;;18.15;;
48999;SDS011;34808;48.144;17.158;2022-10-16T00:25:56;23.02;;;17.75;;
48999;SDS011;34808;48.144;17.158;2022-10-16T00:28:26;21.88;;;18.65;;
48999;SDS011;34808;48.144;17.158;2022-10-16T00:30:52;22.30;;;19.00;;
48999;SDS011;34808;48.144;17.158;2022-10-16T00:33:17;22.73;;;18.83;;
48999;SDS011;34808;48.144;17.158;2022-10-16T00:35:43;25.38;;;19.35;;
48999;SDS011;34808;48.144;17.158;2022-10-16T00:38:08;23.73;;;18.63;;
48999;SDS011;34808;48.144;17.158;2022-10-16T00:40:34;24.63;;;18.90;;
48999;SDS011;34808;48.144;17.158;2022-10-16T00:42:59;21.88;;;18.20;;
48999;SDS011;34808;48.144;17.158;2022-10-16T00:45:24;26.10;;;19.42;;
48999;SDS011;34808;48.144;17.158;2022-10-16T00:47:50;29.17;;;20.08;;
48999;SDS011;34808;48.144;17.158;2022-10-16T00:50:22;21.77;;;18.20;;
48999;SDS011;34808;48.144;17.158;2022-10-16T00:52:52;25.83;;;18.90;;
48999;SDS011;34808;48.144;17.158;2022-10-16T00:55:18;24.70;;;19.65;;
48999;SDS011;34808;48.144;17.158;2022-10-16T00:57:44;26.38;;;18.55;;
48999;SDS011;34808;48.144;17.158;2022-10-16T01:00:15;27.25;;;19.10;;
48999;SDS011;34808;48.144;17.158;2022-10-16T01:02:43;25.08;;;19.05;;
48999;SDS011;34808;48.144;17.158;2022-10-16T01:05:08;26.27;;;19.25;;
48999;SDS011;34808;48.144;17.158;2022-10-16T01:13:09;27.08;;;20.42;;
48999;SDS011;34808;48.144;17.158;2022-10-16T01:15:59;28.55;;;19.85;;
48999;SDS011;34808;48.144;17.158;2022-10-16T01:18:46;24.75;;;19.30;;
48999;SDS011;34808;48.144;17.158;2022-10-16T01:21:26;25.38;;;19.30;;
48999;SDS011;34808;48.144;17.158;2022-10-16T01:26:46;22.27;;;17.60;;
48999;SDS011;34808;48.144;17.158;2022-10-16T01:29:34;30.35;;;24.90;;
48999;SDS011;34808;48.144;17.158;2022-10-16T01:32:10;29.88;;;25.17;;
48999;SDS011;34808;48.144;17.158;2022-10-16T01:34:47;30.13;;;24.90;;
48999;SDS011;34808;48.144;17.158;2022-10-16T01:37:16;28.58;;;21.60;;
48999;SDS011;34808;48.144;17.158;2022-10-16T01:39:47;25.15;;;20.05;;
48999;SDS011;34808;48.144;17.158;2022-10-16T01:42:20;28.40;;;20.48;;
48999;SDS011;34808;48.144;17.158;2022-10-16T01:44:49;26.63;;;20.10;;
48999;SDS011;34808;48.144;17.158;2022-10-16T01:47:17;26.33;;;19.85;;
48999;SDS011;34808;48.144;17.158;2022-10-16T01:49:46;24.73;;;20.42;;
48999;SDS011;34808;48.144;17.158;2022-10-16T01:52:13;22.77;;;18.13;;
48999;SDS011;34808;48.144;17.158;2022-10-16T01:54:43;24.05;;;18.58;;
48999;SDS011;34808;48.144;17.158;2022-10-16T01:57:12;27.85;;;18.65;;
48999;SDS011;34808;48.144;17.158;2022-10-16T01:59:48;31.83;;;23.02;;
48999;SDS011;34808;48.144;17.158;2022-10-16T02:02:19;23.65;;;19.83;;
48999;SDS011;34808;48.144;17.158;2022-10-16T02:04:49;26.05;;;19.98;;
48999;SDS011;34808;48.144;17.158;2022-10-16T02:07:18;23.13;;;19.00;;
48999;SDS011;34808;48.144;17.158;2022-10-16T02:09:44;22.38;;;18.95;;
48999;SDS011;34808;48.144;17.158;2022-10-16T02:12:10;28.17;;;19.15;;
48999;SDS011;34808;48.144;17.158;2022-10-16T02:14:37;26.75;;;18.48;;
48999;SDS011;34808;48.144;17.158;2022-10-16T02:17:14;23.75;;;17.77;;
48999;SDS011;34808;48.144;17.158;2022-10-16T02:19:41;23.25;;;18.20;;
48999;SDS011;34808;48.144;17.158;2022-10-16T02:22:08;22.60;;;18.98;;
48999;SDS011;34808;48.144;17.158;2022-10-16T02:27:26;25.38;;;17.52;;
48999;SDS011;34808;48.144;17.158;2022-10-16T02:30:08;26.63;;;18.20;;
48999;SDS011;34808;48.144;17.158;2022-10-16T02:32:39;25.17;;;19.58;;
48999;SDS011;34808;48.144;17.158;2022-10-16T02:35:08;24.25;;;18.95;;
48999;SDS011;34808;48.144;17.158;2022-10-16T02:37:34;29.42;;;17.52;;
48999;SDS011;34808;48.144;17.158;2022-10-16T02:40:00;22.55;;;17.63;;
48999;SDS011;34808;48.144;17.158;2022-10-16T02:42:37;22.58;;;18.20;;
48999;SDS011;34808;48.144;17.158;2022-10-16T02:45:05;22.60;;;17.63;;
48999;SDS011;34808;48.144;17.158;2022-10-16T02:47:31;19.67;;;16.85;;
48999;SDS011;34808;48.144;17.158;2022-10-16T02:49:57;21.45;;;17.05;;
48999;SDS011;34808;48.144;17.158;2022-10-16T02:52:22;22.75;;;18.20;;
48999;SDS011;34808;48.144;17.158;2022-10-16T02:54:47;22.90;;;18.27;;
48999;SDS011;34808;48.144;17.158;2022-10-16T02:57:13;23.42;;;18.98;;
48999;SDS011;34808;48.144;17.158;2022-10-16T02:59:38;23.30;;;18.42;;
48999;SDS011;34808;48.144;17.158;2022-10-16T03:02:03;21.45;;;18.08;;
48999;SDS011;34808;48.144;17.158;2022-10-16T03:04:29;22.60;;;16.08;;
48999;SDS011;34808;48.144;17.158;2022-10-16T03:06:55;22.58;;;18.60;;
48999;SDS011;34808;48.144;17.158;2022-10-16T03:09:21;23.10;;;17.75;;
48999;SDS011;34808;48.144;17.158;2022-10-16T03:11:46;27.20;;;18.10;;
48999;SDS011;34808;48.144;17.158;2022-10-16T03:14:11;23.42;;;17.70;;
48999;SDS011;34808;48.144;17.158;2022-10-16T03:16:37;22.85;;;18.77;;
48999;SDS011;34808;48.144;17.158;2022-10-16T03:19:02;22.30;;;18.17;;
48999;SDS011;34808;48.144;17.158;2022-10-16T03:21:28;22.75;;;18.25;;
48999;SDS011;34808;48.144;17.158;2022-10-16T03:23:53;25.20;;;19.38;;
48999;SDS011;34808;48.144;17.158;2022-10-16T03:26:18;24.85;;;18.70;;
48999;SDS011;34808;48.144;17.158;2022-10-16T03:28:44;23.77;;;17.10;;
48999;SDS011;34808;48.144;17.158;2022-10-16T03:31:09;24.20;;;17.95;;
48999;SDS011;34808;48.144;17.158;2022-10-16T03:33:34;23.08;;;18.33;;
48999;SDS011;34808;48.144;17.158;2022-10-16T03:36:01;23.50;;;16.48;;
48999;SDS011;34808;48.144;17.158;2022-10-16T03:38:26;21.35;;;17.10;;
48999;SDS011;34808;48.144;17.158;2022-10-16T03:40:51;21.65;;;17.73;;
48999;SDS011;34808;48.144;17.158;2022-10-16T03:43:19;22.55;;;18.23;;
48999;SDS011;34808;48.144;17.158;2022-10-16T03:45:44;24.25;;;16.48;;
48999;SDS011;34808;48.144;17.158;2022-10-16T03:48:10;26.88;;;17.98;;
48999;SDS011;34808;48.144;17.158;2022-10-16T03:50:35;21.75;;;18.23;;
48999;SDS011;34808;48.144;17.158;2022-10-16T03:53:01;22.48;;;17.75;;
48999;SDS011;34808;48.144;17.158;2022-10-16T03:55:26;21.67;;;17.08;;
48999;SDS011;34808;48.144;17.158;2022-10-16T03:57:52;24.02;;;17.80;;
48999;SDS011;34808;48.144;17.158;2022-10-16T04:00:17;20.85;;;16.85;;
48999;SDS011;34808;48.144;17.158;2022-10-16T04:02:42;23.88;;;17.05;;
48999;SDS011;34808;48.144;17.158;2022-10-16T04:05:09;23.60;;;18.48;;
48999;SDS011;34808;48.144;17.158;2022-10-16T04:07:34;26.25;;;18.02;;
48999;SDS011;34808;48.144;17.158;2022-10-16T04:10:00;26.95;;;18.17;;
48999;SDS011;34808;48.144;17.158;2022-10-16T04:22:10;25.67;;;17.83;;
48999;SDS011;34808;48.144;17.158;2022-10-16T04:24:36;19.42;;;17.02;;
48999;SDS011;34808;48.144;17.158;2022-10-16T04:27:01;23.33;;;18.05;;
48999;SDS011;34808;48.144;17.158;2022-10-16T04:42:53;21.77;;;16.63;;
48999;SDS011;34808;48.144;17.158;2022-10-16T05:01:50;22.23;;;17.00;;
48999;SDS011;34808;48.144;17.158;2022-10-16T05:04:15;20.80;;;16.88;;
48999;SDS011;34808;48.144;17.158;2022-10-16T05:06:41;18.80;;;16.67;;
48999;SDS011;34808;48.144;17.158;2022-10-16T05:09:16;20.08;;;16.40;;
48999;SDS011;34808;48.144;17.158;2022-10-16T05:18:40;21.35;;;16.63;;
48999;SDS011;34808;48.144;17.158;2022-10-16T05:37:42;25.67;;;17.70;;
48999;SDS011;34808;48.144;17.158;2022-10-16T05:40:08;21.45;;;17.58;;
48999;SDS011;34808;48.144;17.158;2022-10-16T05:48:47;23.07;;;17.10;;
48999;SDS011;34808;48.144;17.158;2022-10-16T05:51:13;23.75;;;17.83;;
48999;SDS011;34808;48.144;17.158;2022-10-16T05:53:40;21.38;;;16.73;;
48999;SDS011;34808;48.144;17.158;2022-10-16T05:56:06;21.65;;;17.15;;
48999;SDS011;34808;48.144;17.158;2022-10-16T05:58:33;22.88;;;16.73;;
48999;SDS011;34808;48.144;17.158;2022-10-16T06:01:04;21.52;;;15.98;;
48999;SDS011;34808;48.144;17.158;2022-10-16T06:03:43;25.33;;;16.35;;
48999;SDS011;34808;48.144;17.158;2022-10-16T06:06:15;21.15;;;16.05;;
48999;SDS011;34808;48.144;17.158;2022-10-16T06:08:42;25.10;;;17.70;;
48999;SDS011;34808;48.144;17.158;2022-10-16T06:11:10;23.45;;;16.60;;
48999;SDS011;34808;48.144;17.158;2022-10-16T06:13:38;19.92;;;15.77;;
48999;SDS011;34808;48.144;17.158;2022-10-16T06:16:06;21.45;;;16.35;;
48999;SDS011;34808;48.144;17.158;2022-10-16T06:18:32;21.65;;;15.80;;
48999;SDS011;34808;48.144;17.158;2022-10-16T06:20:57;20.35;;;15.23;;
48999;SDS011;34808;48.144;17.158;2022-10-16T06:23:23;22.33;;;15.15;;
48999;SDS011;34808;48.144;17.158;2022-10-16T06:25:49;21.20;;;15.65;;
48999;SDS011;34808;48.144;17.158;2022-10-16T06:28:14;22.10;;;15.68;;
48999;SDS011;34808;48.144;17.158;2022-10-16T06:30:40;23.15;;;16.08;;
48999;SDS011;34808;48.144;17.158;2022-10-16T06:33:08;19.50;;;14.82;;
48999;SDS011;34808;48.144;17.158;2022-10-16T06:35:33;19.95;;;14.07;;
48999;SDS011;34808;48.144;17.158;2022-10-16T06:37:58;23.52;;;15.82;;
48999;SDS011;34808;48.144;17.158;2022-10-16T06:40:24;18.35;;;14.70;;
48999;SDS011;34808;48.144;17.158;2022-10-16T06:42:49;22.52;;;14.57;;
48999;SDS011;34808;48.144;17.158;2022-10-16T06:45:16;21.95;;;15.85;;
48999;SDS011;34808;48.144;17.158;2022-10-16T06:47:41;18.45;;;13.65;;
48999;SDS011;34808;48.144;17.158;2022-10-16T06:50:07;14.65;;;12.68;;
48999;SDS011;34808;48.144;17.158;2022-10-16T06:52:33;14.73;;;12.73;;
48999;SDS011;34808;48.144;17.158;2022-10-16T06:54:59;18.77;;;13.00;;
48999;SDS011;34808;48.144;17.158;2022-10-16T06:57:25;20.58;;;13.80;;
48999;SDS011;34808;48.144;17.158;2022-10-16T06:59:50;17.27;;;13.35;;
48999;SDS011;34808;48.144;17.158;2022-10-16T07:02:16;18.10;;;13.23;;
48999;SDS011;34808;48.144;17.158;2022-10-16T07:04:41;14.65;;;13.02;;
48999;SDS011;34808;48.144;17.158;2022-10-16T07:07:06;15.00;;;13.02;;
48999;SDS011;34808;48.144;17.158;2022-10-16T07:09:31;17.17;;;12.82;;
48999;SDS011;34808;48.144;17.158;2022-10-16T07:11:57;16.85;;;11.60;;
48999;SDS011;34808;48.144;17.158;2022-10-16T07:14:22;17.17;;;14.10;;
48999;SDS011;34808;48.144;17.158;2022-10-16T07:16:48;14.20;;;11.98;;
48999;SDS011;34808;48.144;17.158;2022-10-16T07:19:14;13.68;;;11.02;;
48999;SDS011;34808;48.144;17.158;2022-10-16T07:21:42;14.23;;;11.38;;
48999;SDS011;34808;48.144;17.158;2022-10-16T07:24:11;17.48;;;11.93;;
48999;SDS011;34808;48.144;17.158;2022-10-16T07:26:38;15.73;;;11.27;;
48999;SDS011;34808;48.144;17.158;2022-10-16T07:29:05;18.80;;;12.07;;
48999;SDS011;34808;48.144;17.158;2022-10-16T07:31:32;16.63;;;11.60;;
48999;SDS011;34808;48.144;17.158;2022-10-16T07:34:01;22.85;;;13.25;;
48999;SDS011;34808;48.144;17.158;2022-10-16T07:36:26;16.17;;;12.18;;
48999;SDS011;34808;48.144;17.158;2022-10-16T07:38:51;16.63;;;12.23;;
48999;SDS011;34808;48.144;17.158;2022-10-16T07:41:18;12.55;;;10.98;;
48999;SDS011;34808;48.144;17.158;2022-10-16T07:43:45;14.23;;;11.65;;
48999;SDS011;34808;48.144;17.158;2022-10-16T07:46:15;19.38;;;11.82;;
48999;SDS011;34808;48.144;17.158;2022-10-16T07:48:41;15.32;;;12.30;;
48999;SDS011;34808;48.144;17.158;2022-10-16T07:51:10;14.98;;;11.40;;
48999;SDS011;34808;48.144;17.158;2022-10-16T07:53:36;15.98;;;12.13;;
48999;SDS011;34808;48.144;17.158;2022-10-16T07:56:03;14.07;;;12.40;;
48999;SDS011;34808;48.144;17.158;2022-10-16T07:58:29;17.05;;;12.45;;
48999;SDS011;34808;48.144;17.158;2022-10-16T08:00:55;19.90;;;13.07;;
48999;SDS011;34808;48.144;17.158;2022-10-16T08:03:21;18.10;;;12.65;;
48999;SDS011;34808;48.144;17.158;2022-10-16T08:05:47;20.10;;;12.13;;
48999;SDS011;34808;48.144;17.158;2022-10-16T08:08:13;16.70;;;12.43;;
48999;SDS011;34808;48.144;17.158;2022-10-16T08:10:40;17.42;;;12.25;;
48999;SDS011;34808;48.144;17.158;2022-10-16T08:13:06;14.75;;;12.57;;
48999;SDS011;34808;48.144;17.158;2022-10-16T08:15:31;17.95;;;13.95;;
48999;SDS011;34808;48.144;17.158;2022-10-16T08:17:57;18.02;;;13.50;;
48999;SDS011;34808;48.144;17.158;2022-10-16T08:20:24;15.98;;;12.48;;
48999;SDS011;34808;48.144;17.158;2022-10-16T08:22:51;16.10;;;12.88;;
48999;SDS011;34808;48.144;17.158;2022-10-16T08:25:16;17.45;;;12.95;;
48999;SDS011;34808;48.144;17.158;2022-10-16T08:27:42;16.52;;;14.55;;
48999;SDS011;34808;48.144;17.158;2022-10-16T08:30:07;23.48;;;14.07;;
48999;SDS011;34808;48.144;17.158;2022-10-16T08:32:33;19.95;;;15.10;;
48999;SDS011;34808;48.144;17.158;2022-10-16T08:34:59;16.30;;;14.55;;
48999;SDS011;34808;48.144;17.158;2022-10-16T08:37:24;15.63;;;13.43;;
48999;SDS011;34808;48.144;17.158;2022-10-16T08:39:50;22.65;;;14.63;;
48999;SDS011;34808;48.144;17.158;2022-10-16T08:50:09;20.13;;;15.27;;
48999;SDS011;34808;48.144;17.158;2022-10-16T08:52:38;24.13;;;15.98;;
48999;SDS011;34808;48.144;17.158;2022-10-16T08:55:08;22.50;;;18.38;;
48999;SDS011;34808;48.144;17.158;2022-10-16T08:57:52;17.48;;;15.13;;
48999;SDS011;34808;48.144;17.158;2022-10-16T09:00:17;20.50;;;16.55;;
48999;SDS011;34808;48.144;17.158;2022-10-16T09:03:02;19.35;;;16.38;;
48999;SDS011;34808;48.144;17.158;2022-10-16T09:14:19;23.23;;;16.33;;
48999;SDS011;34808;48.144;17.158;2022-10-16T09:17:00;21.90;;;17.50;;
48999;SDS011;34808;48.144;17.158;2022-10-16T09:19:36;24.75;;;20.05;;
48999;SDS011;34808;48.144;17.158;2022-10-16T09:22:14;22.92;;;18.60;;
48999;SDS011;34808;48.144;17.158;2022-10-16T09:24:41;22.45;;;19.75;;
48999;SDS011;34808;48.144;17.158;2022-10-16T09:27:11;23.42;;;19.23;;
48999;SDS011;34808;48.144;17.158;2022-10-16T09:29:37;23.02;;;19.85;;
48999;SDS011;34808;48.144;17.158;2022-10-16T09:32:12;22.52;;;20.13;;
48999;SDS011;34808;48.144;17.158;2022-10-16T09:34:43;32.28;;;21.58;;
48999;SDS011;34808;48.144;17.158;2022-10-16T09:37:14;25.70;;;20.02;;
48999;SDS011;34808;48.144;17.158;2022-10-16T09:39:47;24.23;;;21.15;;
48999;SDS011;34808;48.144;17.158;2022-10-16T09:42:23;22.83;;;20.35;;
48999;SDS011;34808;48.144;17.158;2022-10-16T09:44:56;23.40;;;19.75;;
48999;SDS011;34808;48.144;17.158;2022-10-16T09:47:22;28.35;;;21.48;;
48999;SDS011;34808;48.144;17.158;2022-10-16T09:49:54;24.65;;;20.80;;
48999;SDS011;34808;48.144;17.158;2022-10-16T09:52:20;26.40;;;21.25;;
48999;SDS011;34808;48.144;17.158;2022-10-16T09:55:29;24.13;;;21.15;;
48999;SDS011;34808;48.144;17.158;2022-10-16T09:57:53;21.55;;;18.88;;
48999;SDS011;34808;48.144;17.158;2022-10-16T10:00:19;26.67;;;20.38;;
48999;SDS011;34808;48.144;17.158;2022-10-16T10:02:45;23.58;;;20.50;;
48999;SDS011;34808;48.144;17.158;2022-10-16T10:05:21;27.70;;;20.98;;
48999;SDS011;34808;48.144;17.158;2022-10-16T10:07:59;27.80;;;21.48;;
48999;SDS011;34808;48.144;17.158;2022-10-16T10:10:31;26.85;;;21.30;;
48999;SDS011;34808;48.144;17.158;2022-10-16T10:13:03;27.90;;;21.33;;
48999;SDS011;34808;48.144;17.158;2022-10-16T10:15:33;29.15;;;22.13;;
48999;SDS011;34808;48.144;17.158;2022-10-16T10:18:00;27.95;;;22.20;;
48999;SDS011;34808;48.144;17.158;2022-10-16T10:22:59;32.10;;;23.58;;
48999;SDS011;34808;48.144;17.158;2022-10-16T10:28:00;28.45;;;21.73;;
48999;SDS011;34808;48.144;17.158;2022-10-16T10:31:03;27.48;;;22.20;;
48999;SDS011;34808;48.144;17.158;2022-10-16T10:38:59;27.70;;;22.58;;
48999;SDS011;34808;48.144;17.158;2022-10-16T10:50:18;32.85;;;22.73;;
48999;SDS011;34808;48.144;17.158;2022-10-16T10:57:54;30.75;;;23.38;;
48999;SDS011;34808;48.144;17.158;2022-10-16T11:05:58;26.05;;;22.42;;
48999;SDS011;34808;48.144;17.158;2022-10-16T11:08:39;28.02;;;24.08;;
48999;SDS011;34808;48.144;17.158;2022-10-16T11:11:11;27.83;;;23.52;;
48999;SDS011;34808;48.144;17.158;2022-10-16T11:14:00;24.42;;;21.90;;
48999;SDS011;34808;48.144;17.158;2022-10-16T11:16:43;27.03;;;24.13;;
48999;SDS011;34808;48.144;17.158;2022-10-16T11:19:26;28.58;;;23.73;;
48999;SDS011;34808;48.144;17.158;2022-10-16T11:24:55;30.23;;;25.08;;
48999;SDS011;34808;48.144;17.158;2022-10-16T11:27:50;28.83;;;23.90;;
48999;SDS011;34808;48.144;17.158;2022-10-16T11:30:21;27.52;;;24.50;;
48999;SDS011;34808;48.144;17.158;2022-10-16T11:33:13;27.00;;;24.10;;
48999;SDS011;34808;48.144;17.158;2022-10-16T11:35:49;25.83;;;23.20;;
48999;SDS011;34808;48.144;17.158;2022-10-16T11:41:29;28.77;;;25.65;;
48999;SDS011;34808;48.144;17.158;2022-10-16T11:44:06;26.48;;;23.67;;
48999;SDS011;34808;48.144;17.158;2022-10-16T11:46:48;27.40;;;22.75;;
48999;SDS011;34808;48.144;17.158;2022-10-16T11:49:24;25.30;;;22.65;;
48999;SDS011;34808;48.144;17.158;2022-10-16T11:51:58;26.48;;;21.77;;
48999;SDS011;34808;48.144;17.158;2022-10-16T11:56:59;26.20;;;23.45;;
48999;SDS011;34808;48.144;17.158;2022-10-16T11:59:54;25.15;;;22.55;;
48999;SDS011;34808;48.144;17.158;2022-10-16T12:02:38;24.70;;;22.17;;
48999;SDS011;34808;48.144;17.158;2022-10-16T12:05:49;29.52;;;23.60;;
48999;SDS011;34808;48.144;17.158;2022-10-16T12:08:15;25.58;;;22.83;;
48999;SDS011;34808;48.144;17.158;2022-10-16T12:10:42;28.27;;;22.95;;
48999;SDS011;34808;48.144;17.158;2022-10-16T12:13:33;29.38;;;21.27;;
48999;SDS011;34808;48.144;17.158;2022-10-16T12:18:39;25.08;;;21.00;;
48999;SDS011;34808;48.144;17.158;2022-10-16T12:21:06;26.42;;;20.92;;
48999;SDS011;34808;48.144;17.158;2022-10-16T12:23:33;30.45;;;22.40;;
48999;SDS011;34808;48.144;17.158;2022-10-16T12:26:02;24.38;;;21.92;;
48999;SDS011;34808;48.144;17.158;2022-10-16T12:28:29;23.73;;;20.23;;
48999;SDS011;34808;48.144;17.158;2022-10-16T12:31:03;23.17;;;20.77;;
48999;SDS011;34808;48.144;17.158;2022-10-16T12:33:34;24.27;;;21.58;;
48999;SDS011;34808;48.144;17.158;2022-10-16T12:36:13;22.08;;;19.77;;
48999;SDS011;34808;48.144;17.158;2022-10-16T12:38:48;23.52;;;20.98;;
48999;SDS011;34808;48.144;17.158;2022-10-16T12:41:32;22.08;;;19.88;;
48999;SDS011;34808;48.144;17.158;2022-10-16T12:43:59;22.85;;;20.55;;
48999;SDS011;34808;48.144;17.158;2022-10-16T12:51:38;25.10;;;21.10;;
48999;SDS011;34808;48.144;17.158;2022-10-16T12:54:12;23.67;;;20.58;;
48999;SDS011;34808;48.144;17.158;2022-10-16T12:56:52;22.75;;;20.30;;
48999;SDS011;34808;48.144;17.158;2022-10-16T13:24:46;19.45;;;17.58;;
48999;SDS011;34808;48.144;17.158;2022-10-16T13:27:22;20.90;;;18.90;;
48999;SDS011;34808;48.144;17.158;2022-10-16T13:29:52;19.20;;;17.15;;
48999;SDS011;34808;48.144;17.158;2022-10-16T13:32:20;20.55;;;17.80;;
48999;SDS011;34808;48.144;17.158;2022-10-16T13:34:47;19.48;;;17.08;;
48999;SDS011;34808;48.144;17.158;2022-10-16T13:37:17;20.38;;;18.05;;
48999;SDS011;34808;48.144;17.158;2022-10-16T13:39:45;19.13;;;17.13;;
48999;SDS011;34808;48.144;17.158;2022-10-16T13:42:29;20.70;;;17.92;;
48999;SDS011;34808;48.144;17.158;2022-10-16T13:44:55;24.27;;;17.80;;
48999;SDS011;34808;48.144;17.158;2022-10-16T13:47:25;23.55;;;17.55;;
48999;SDS011;34808;48.144;17.158;2022-10-16T13:49:59;20.88;;;17.65;;
48999;SDS011;34808;48.144;17.158;2022-10-16T13:52:26;18.33;;;16.35;;
48999;SDS011;34808;48.144;17.158;2022-10-16T13:54:52;19.02;;;17.13;;
48999;SDS011;34808;48.144;17.158;2022-10-16T13:57:17;19.52;;;17.52;;
48999;SDS011;34808;48.144;17.158;2022-10-16T13:59:43;19.27;;;16.48;;
48999;SDS011;34808;48.144;17.158;2022-10-16T14:02:14;17.80;;;15.95;;
48999;SDS011;34808;48.144;17.158;2022-10-16T14:04:47;18.30;;;16.50;;
48999;SDS011;34808;48.144;17.158;2022-10-16T14:07:14;22.17;;;16.45;;
48999;SDS011;34808;48.144;17.158;2022-10-16T14:10:02;18.70;;;15.90;;
48999;SDS011;34808;48.144;17.158;2022-10-16T14:12:30;18.73;;;16.77;;
48999;SDS011;34808;48.144;17.158;2022-10-16T14:14:56;18.50;;;16.65;;
48999;SDS011;34808;48.144;17.158;2022-10-16T14:17:28;18.00;;;16.27;;
48999;SDS011;34808;48.144;17.158;2022-10-16T14:19:56;17.58;;;15.77;;
48999;SDS011;34808;48.144;17.158;2022-10-16T14:22:40;22.13;;;17.27;;
48999;SDS011;34808;48.144;17.158;2022-10-16T14:27:44;20.55;;;18.08;;
48999;SDS011;34808;48.144;17.158;2022-10-16T14:30:14;19.83;;;17.75;;
48999;SDS011;34808;48.144;17.158;2022-10-16T14:32:41;18.02;;;15.30;;
48999;SDS011;34808;48.144;17.158;2022-10-16T14:37:57;20.58;;;16.73;;
48999;SDS011;34808;48.144;17.158;2022-10-16T14:40:25;19.80;;;15.88;;
48999;SDS011;34808;48.144;17.158;2022-10-16T14:42:53;21.83;;;16.00;;
48999;SDS011;34808;48.144;17.158;2022-10-16T14:45:24;17.75;;;15.93;;
48999;SDS011;34808;48.144;17.158;2022-10-16T14:47:53;18.42;;;16.23;;
48999;SDS011;34808;48.144;17.158;2022-10-16T14:50:20;18.58;;;16.70;;
48999;SDS011;34808;48.144;17.158;2022-10-16T14:52:46;19.42;;;15.80;;
48999;SDS011;34808;48.144;17.158;2022-10-16T14:55:11;17.52;;;15.52;;
48999;SDS011;34808;48.144;17.158;2022-10-16T14:57:37;18.38;;;16.38;;
48999;SDS011;34808;48.144;17.158;2022-10-16T15:00:08;17.88;;;15.57;;
48999;SDS011;34808;48.144;17.158;2022-10-16T15:02:38;20.15;;;15.15;;
48999;SDS011;34808;48.144;17.158;2022-10-16T15:05:10;18.00;;;16.10;;
48999;SDS011;34808;48.144;17.158;2022-10-16T15:07:45;20.85;;;16.40;;
48999;SDS011;34808;48.144;17.158;2022-10-16T15:10:12;20.10;;;16.63;;
48999;SDS011;34808;48.144;17.158;2022-10-16T15:12:38;17.65;;;15.95;;
48999;SDS011;34808;48.144;17.158;2022-10-16T15:15:21;19.13;;;15.38;;
48999;SDS011;34808;48.144;17.158;2022-10-16T15:17:52;16.85;;;15.15;;
48999;SDS011;34808;48.144;17.158;2022-10-16T15:20:20;17.92;;;16.15;;
48999;SDS011;34808;48.144;17.158;2022-10-16T15:22:47;19.58;;;17.70;;
48999;SDS011;34808;48.144;17.158;2022-10-16T15:25:57;17.90;;;15.70;;
48999;SDS011;34808;48.144;17.158;2022-10-16T15:27:59;20.25;;;16.55;;
48999;SDS011;34808;48.144;17.158;2022-10-16T15:30:26;18.95;;;15.50;;
48999;SDS011;34808;48.144;17.158;2022-10-16T15:32:52;18.80;;;16.02;;
48999;SDS011;34808;48.144;17.158;2022-10-16T15:35:17;20.15;;;15.23;;
48999;SDS011;34808;48.144;17.158;2022-10-16T15:37:43;19.13;;;16.17;;
48999;SDS011;34808;48.144;17.158;2022-10-16T15:40:09;19.42;;;15.55;;
48999;SDS011;34808;48.144;17.158;2022-10-16T15:42:35;19.00;;;16.00;;
48999;SDS011;34808;48.144;17.158;2022-10-16T15:45:00;15.90;;;14.30;;
48999;SDS011;34808;48.144;17.158;2022-10-16T15:47:26;18.10;;;14.30;;
48999;SDS011;34808;48.144;17.158;2022-10-16T15:49:51;18.35;;;14.32;;
48999;SDS011;34808;48.144;17.158;2022-10-16T15:52:16;15.38;;;13.63;;
48999;SDS011;34808;48.144;17.158;2022-10-16T15:54:42;16.60;;;14.32;;
48999;SDS011;34808;48.144;17.158;2022-10-16T15:57:08;23.63;;;14.75;;
48999;SDS011;34808;48.144;17.158;2022-10-16T15:59:33;19.95;;;15.10;;
48999;SDS011;34808;48.144;17.158;2022-10-16T16:01:58;19.42;;;14.98;;
48999;SDS011;34808;48.144;17.158;2022-10-16T16:04:24;18.90;;;14.32;;
48999;SDS011;34808;48.144;17.158;2022-10-16T16:06:49;16.08;;;14.32;;
48999;SDS011;34808;48.144;17.158;2022-10-16T16:09:14;18.92;;;14.13;;
48999;SDS011;34808;48.144;17.158;2022-10-16T16:11:40;19.30;;;13.32;;
48999;SDS011;34808;48.144;17.158;2022-10-16T16:14:06;19.23;;;14.07;;
48999;SDS011;34808;48.144;17.158;2022-10-16T16:16:32;16.92;;;15.00;;
48999;SDS011;34808;48.144;17.158;2022-10-16T16:19:03;16.23;;;13.97;;
48999;SDS011;34808;48.144;17.158;2022-10-16T16:21:30;20.90;;;13.45;;
48999;SDS011;34808;48.144;17.158;2022-10-16T16:23:56;19.67;;;12.90;;
48999;SDS011;34808;48.144;17.158;2022-10-16T16:26:26;15.05;;;13.07;;
48999;SDS011;34808;48.144;17.158;2022-10-16T16:28:57;16.75;;;13.93;;
48999;SDS011;34808;48.144;17.158;2022-10-16T16:31:26;20.63;;;14.50;;
48999;SDS011;34808;48.144;17.158;2022-10-16T16:33:53;19.80;;;14.30;;
48999;SDS011;34808;48.144;17.158;2022-10-16T16:36:19;15.68;;;13.65;;
48999;SDS011;34808;48.144;17.158;2022-10-16T16:38:44;15.50;;;13.85;;
48999;SDS011;34808;48.144;17.158;2022-10-16T16:41:11;17.48;;;14.60;;
48999;SDS011;34808;48.144;17.158;2022-10-16T16:43:41;16.10;;;13.15;;
48999;SDS011;34808;48.144;17.158;2022-10-16T16:46:18;21.75;;;14.07;;
48999;SDS011;34808;48.144;17.158;2022-10-16T16:54:18;22.88;;;15.43;;
48999;SDS011;34808;48.144;17.158;2022-10-16T16:56:44;16.25;;;12.02;;
48999;SDS011;34808;48.144;17.158;2022-10-16T16:59:17;17.02;;;14.23;;
48999;SDS011;34808;48.144;17.158;2022-10-16T17:07:11;18.13;;;13.18;;
48999;SDS011;34808;48.144;17.158;2022-10-16T17:12:41;20.50;;;13.25;;
48999;SDS011;34808;48.144;17.158;2022-10-16T17:15:06;19.52;;;14.38;;
48999;SDS011;34808;48.144;17.158;2022-10-16T17:21:06;18.30;;;13.88;;
48999;SDS011;34808;48.144;17.158;2022-10-16T17:23:34;19.92;;;12.70;;
48999;SDS011;34808;48.144;17.158;2022-10-16T17:26:11;17.25;;;14.02;;
48999;SDS011;34808;48.144;17.158;2022-10-16T17:28:38;16.58;;;13.45;;
48999;SDS011;34808;48.144;17.158;2022-10-16T17:33:32;17.90;;;14.35;;
48999;SDS011;34808;48.144;17.158;2022-10-16T17:35:58;16.13;;;13.43;;